createdAt,value
2023-11-13T00:00:53.353Z,0.3
2023-11-13T00:02:23.870Z,0.8
2023-11-13T00:03:54.376Z,0.5
2023-11-13T00:05:24.963Z,1.8
2023-11-13T00:07:03.598Z,0.7
2023-11-13T00:08:34.104Z,0.5
2023-11-13T00:10:04.706Z,1
2023-11-13T00:11:42.338Z,0.3
2023-11-13T00:12:57.033Z,0.3
2023-11-13T00:14:27.567Z,0.3
2023-11-13T00:15:58.065Z,0.9
2023-11-13T00:17:28.582Z,0.6
2023-11-13T00:18:59.095Z,0.3
2023-11-13T00:20:29.000Z,0.5
2023-11-13T00:22:00.108Z,0.5
2023-11-13T00:23:30.629Z,0.2
2023-11-13T00:25:01.156Z,0.7
2023-11-13T00:26:31.647Z,0.3
2023-11-13T00:27:46.775Z,0.3
2023-11-13T00:29:01.905Z,0.4
2023-11-13T00:30:32.427Z,0.4
2023-11-13T00:32:02.936Z,0.3
2023-11-13T00:33:33.450Z,1
2023-11-13T00:35:03.972Z,0.7
2023-11-13T00:36:34.478Z,0.6
2023-11-13T00:38:04.990Z,0.2
2023-11-13T00:39:35.505Z,0.5
2023-11-13T00:41:06.008Z,0.2
2023-11-13T00:42:36.520Z,0.6
2023-11-13T00:43:51.665Z,0.7
2023-11-13T00:45:06.787Z,0.5
2023-11-13T00:46:37.307Z,0.2
2023-11-13T00:48:07.807Z,0.7
2023-11-13T00:49:38.313Z,0.5
2023-11-13T00:51:08.838Z,0.4
2023-11-13T00:54:09.854Z,0.3
2023-11-13T00:55:40.386Z,0.2
2023-11-13T00:57:10.891Z,0.7
2023-11-13T00:58:41.397Z,0.7
2023-11-13T00:59:56.534Z,0.6
2023-11-13T01:01:11.645Z,0.6
2023-11-13T01:02:42.171Z,0.5
2023-11-13T01:04:12.677Z,0.3
2023-11-13T01:05:43.206Z,0.6
2023-11-13T01:07:13.720Z,0.6
2023-11-13T01:08:44.222Z,0.3
2023-11-13T01:10:14.724Z,0.3
2023-11-13T01:11:45.239Z,0.4
2023-11-13T01:13:15.758Z,0.5
2023-11-13T01:14:46.283Z,0.8
2023-11-13T01:16:01.423Z,0.2
2023-11-13T01:17:16.534Z,0.6
2023-11-13T01:18:47.034Z,0.4
2023-11-13T01:20:17.558Z,0.4
2023-11-13T01:21:48.060Z,0.3
2023-11-13T01:23:18.576Z,0.6
2023-11-13T01:24:49.108Z,0.4
2023-11-13T01:26:19.625Z,0.9
2023-11-13T01:27:50.127Z,0.4
2023-11-13T01:29:20.622Z,0.2
2023-11-13T01:30:51.146Z,0.4
2023-11-13T01:32:05.828Z,0.2
2023-11-13T01:33:20.972Z,0.3
2023-11-13T01:34:51.489Z,0.7
2023-11-13T01:36:21.983Z,0.2
2023-11-13T01:37:52.511Z,0.4
2023-11-13T01:39:23.015Z,0.3
2023-11-13T01:40:53.539Z,0.4
2023-11-13T01:42:24.058Z,0.4
2023-11-13T01:43:54.566Z,0.3
2023-11-13T01:46:55.576Z,0.7
2023-11-13T01:48:10.718Z,0.6
2023-11-13T01:49:25.829Z,0.6
2023-11-13T01:50:56.360Z,0.6
2023-11-13T01:52:26.858Z,0.5
2023-11-13T01:53:57.372Z,0.3
2023-11-13T01:55:27.881Z,0.2
2023-11-13T01:56:58.398Z,1.5
2023-11-13T01:58:28.928Z,0.4
2023-11-13T01:59:59.449Z,0.2
2023-11-13T02:01:29.941Z,0.8
2023-11-13T02:03:00.449Z,0.5
2023-11-13T02:04:15.605Z,0.2
2023-11-13T02:05:30.704Z,0.3
2023-11-13T02:07:01.216Z,0.5
2023-11-13T02:08:31.745Z,0.4
2023-11-13T02:11:32.751Z,0.8
2023-11-13T02:13:03.277Z,0.8
2023-11-13T02:14:33.792Z,0.4
2023-11-13T02:16:04.310Z,0.4
2023-11-13T02:17:34.832Z,0.5
2023-11-13T02:19:05.325Z,0.2
2023-11-13T02:20:20.458Z,0.4
2023-11-13T02:21:35.572Z,0.6
2023-11-13T02:23:06.096Z,0.2
2023-11-13T02:24:36.613Z,0.2
2023-11-13T02:26:07.123Z,0.6
2023-11-13T02:27:37.644Z,0.5
2023-11-13T02:29:08.146Z,0.6
2023-11-13T02:30:38.671Z,0.7
2023-11-13T02:32:09.168Z,0.4
2023-11-13T02:35:10.189Z,0.2
2023-11-13T02:36:25.334Z,0.8
2023-11-13T02:37:40.456Z,0.4
2023-11-13T02:39:10.968Z,0.8
2023-11-13T02:40:41.478Z,1.6
2023-11-13T02:42:11.989Z,0.6
2023-11-13T02:43:42.499Z,0.9
2023-11-13T02:45:13.013Z,0.1
2023-11-13T02:46:43.526Z,0.4
2023-11-13T02:48:14.055Z,0.2
2023-11-13T02:49:44.561Z,0.6
2023-11-13T02:51:15.070Z,0.5
2023-11-13T02:52:30.196Z,0.2
2023-11-13T02:53:45.320Z,0.4
2023-11-13T02:55:15.829Z,0.3
2023-11-13T02:56:46.370Z,0.8
2023-11-13T02:58:16.857Z,0.5
2023-11-13T02:59:47.385Z,0.5
2023-11-13T03:01:17.897Z,0.5
2023-11-13T03:02:48.394Z,1.3
2023-11-13T03:04:18.922Z,0.2
2023-11-13T03:05:49.436Z,0.3
2023-11-13T03:07:19.934Z,0.5
2023-11-13T03:08:35.077Z,0.4
2023-11-13T03:09:50.215Z,0.3
2023-11-13T03:11:20.709Z,0.4
2023-11-13T03:14:21.751Z,0.4
2023-11-13T03:15:52.245Z,0.6
2023-11-13T03:17:22.758Z,0.5
2023-11-13T03:18:53.273Z,0.4
2023-11-13T03:20:23.801Z,0.5
2023-11-13T03:21:54.300Z,0.2
2023-11-13T03:23:24.814Z,0.3
2023-11-13T03:24:39.950Z,0.5
2023-11-13T03:25:54.652Z,0.5
2023-11-13T03:27:25.157Z,0.3
2023-11-13T03:28:55.663Z,0.4
2023-11-13T03:30:26.167Z,0.2
2023-11-13T03:31:56.689Z,0.6
2023-11-13T03:33:27.204Z,0.2
2023-11-13T03:34:57.706Z,0.3
2023-11-13T03:36:28.222Z,0.3
2023-11-13T03:37:58.754Z,0.6
2023-11-13T03:39:29.251Z,0.5
2023-11-13T03:40:44.372Z,0.6
2023-11-13T03:41:59.513Z,0.6
2023-11-13T03:43:30.032Z,0.6
2023-11-13T03:45:00.541Z,0.4
2023-11-13T03:46:31.053Z,0.7
2023-11-13T03:48:01.567Z,0.4
2023-11-13T03:49:32.088Z,0.4
2023-11-13T03:51:02.602Z,0.2
2023-11-13T03:52:33.097Z,1.1
2023-11-13T03:54:03.623Z,0.4
2023-11-13T03:55:34.139Z,0.4
2023-11-13T03:56:49.243Z,0.6
2023-11-13T03:58:04.369Z,0.5
2023-11-13T03:59:34.901Z,0.4
2023-11-13T04:01:05.398Z,1.1
2023-11-13T04:02:35.927Z,0.8
2023-11-13T04:04:06.447Z,1.3
2023-11-13T04:05:36.939Z,0.6
2023-11-13T04:07:07.452Z,0.8
2023-11-13T04:08:37.964Z,0.3
2023-11-13T04:10:08.478Z,0.9
2023-11-13T04:11:39.018Z,0.9
2023-11-13T04:12:54.139Z,0.3
2023-11-13T04:14:09.271Z,0.4
2023-11-13T04:15:39.773Z,0.3
2023-11-13T04:17:10.275Z,0.5
2023-11-13T04:18:40.818Z,0.6
2023-11-13T04:20:11.311Z,0.6
2023-11-13T04:21:41.825Z,0.2
2023-11-13T04:23:12.326Z,0.3
2023-11-13T04:24:42.838Z,0.5
2023-11-13T04:26:13.356Z,0.2
2023-11-13T04:27:43.871Z,0.4
2023-11-13T04:28:59.004Z,0.9
2023-11-13T04:31:44.629Z,0.5
2023-11-13T04:33:15.159Z,0.8
2023-11-13T04:34:45.656Z,1.1
2023-11-13T04:36:16.177Z,0.5
2023-11-13T04:37:46.696Z,0.4
2023-11-13T04:39:17.211Z,0.5
2023-11-13T04:40:47.711Z,1
2023-11-13T04:42:18.238Z,0.6
2023-11-13T04:43:48.736Z,0.6
2023-11-13T04:45:03.866Z,1.1
2023-11-13T04:46:19.014Z,0.5
2023-11-13T04:47:49.522Z,0.5
2023-11-13T04:49:20.016Z,1
2023-11-13T04:50:50.530Z,0.7
2023-11-13T04:52:21.062Z,0.7
2023-11-13T04:53:51.561Z,0.5
2023-11-13T04:55:22.087Z,0.4
2023-11-13T04:56:52.588Z,0.4
2023-11-13T04:58:23.113Z,1.2
2023-11-13T04:59:53.714Z,0.3
2023-11-13T05:01:08.828Z,0.6
2023-11-13T05:02:23.947Z,0.7
2023-11-13T05:03:54.482Z,1.2
2023-11-13T05:05:24.977Z,1.1
2023-11-13T05:06:55.513Z,0.5
2023-11-13T05:08:26.003Z,1.4
2023-11-13T05:09:56.543Z,1.2
2023-11-13T05:11:27.035Z,1.9
2023-11-13T05:12:57.550Z,1.5
2023-11-13T05:14:28.068Z,0.5
2023-11-13T05:15:58.568Z,0.3
2023-11-13T05:17:13.696Z,1.5
2023-11-13T05:19:59.329Z,1.1
2023-11-13T05:21:29.865Z,0.4
2023-11-13T05:23:00.366Z,0.8
2023-11-13T05:24:30.884Z,0.6
2023-11-13T05:26:01.401Z,1.2
2023-11-13T05:27:31.907Z,1
2023-11-13T05:29:02.442Z,0.8
2023-11-13T05:30:32.944Z,0.7
2023-11-13T05:32:03.437Z,0.9
2023-11-13T05:33:18.566Z,0.7
2023-11-13T05:34:33.711Z,1.2
2023-11-13T05:36:04.221Z,0.6
2023-11-13T05:37:34.728Z,1.2
2023-11-13T05:39:05.243Z,0.7
2023-11-13T05:40:35.750Z,1.7
2023-11-13T05:42:06.259Z,1
2023-11-13T05:43:36.798Z,1.1
2023-11-13T05:45:07.290Z,1.1
2023-11-13T05:46:37.803Z,1
2023-11-13T05:48:08.330Z,1
2023-11-13T05:49:23.398Z,0.3
2023-11-13T05:50:38.512Z,0.7
2023-11-13T05:52:09.033Z,1.4
2023-11-13T05:53:39.538Z,1.1
2023-11-13T05:55:10.067Z,0.6
2023-11-13T05:56:40.576Z,2.3
2023-11-13T05:58:11.000Z,1.3
2023-11-13T05:59:41.588Z,1
2023-11-13T06:01:12.117Z,0.5
2023-11-13T06:02:42.631Z,1.7
2023-11-13T06:04:13.129Z,0.7
2023-11-13T06:05:27.778Z,1.1
2023-11-13T06:06:42.842Z,0.8
2023-11-13T06:08:13.358Z,0.8
2023-11-13T06:09:43.876Z,1.1
2023-11-13T06:14:15.422Z,0.7
2023-11-13T06:15:45.918Z,0.9
2023-11-13T06:17:16.433Z,1
2023-11-13T06:18:46.958Z,0.9
2023-11-13T06:20:17.497Z,1.3
2023-11-13T06:21:32.548Z,0.8
2023-11-13T06:22:47.624Z,0.6
2023-11-13T06:24:18.139Z,1.4
2023-11-13T06:25:48.668Z,1.6
2023-11-13T06:27:19.166Z,1.4
2023-11-13T06:28:49.674Z,1.2
2023-11-13T06:30:20.178Z,1.5
2023-11-13T06:31:50.702Z,1.6
2023-11-13T06:33:21.200Z,0.6
2023-11-13T06:36:22.229Z,1.6
2023-11-13T06:37:37.308Z,1.2
2023-11-13T06:38:52.376Z,1.5
2023-11-13T06:40:22.982Z,1.1
2023-11-13T06:42:01.594Z,1.7
2023-11-13T06:43:32.107Z,1.4
2023-11-13T06:45:02.619Z,1
2023-11-13T06:46:33.143Z,1.4
2023-11-13T06:48:03.649Z,1.4
2023-11-13T06:49:34.156Z,0.9
2023-11-13T06:51:04.665Z,0.7
2023-11-13T06:52:35.184Z,0.9
2023-11-13T06:53:50.254Z,1.1
2023-11-13T06:55:05.068Z,1
2023-11-13T06:56:43.679Z,1.1
2023-11-13T06:58:14.208Z,0.7
2023-11-13T06:59:44.732Z,0.8
2023-11-13T07:01:15.219Z,0.8
2023-11-13T07:02:45.740Z,3.1
2023-11-13T07:04:16.257Z,0.9
2023-11-13T07:05:46.773Z,0.8
2023-11-13T07:07:17.299Z,0.8
2023-11-13T07:08:47.795Z,0.8
2023-11-13T07:10:02.856Z,1.2
2023-11-13T07:11:17.939Z,0.8
2023-11-13T07:12:48.441Z,1.7
2023-11-13T07:15:49.499Z,1.2
2023-11-13T07:17:19.998Z,1.2
2023-11-13T07:18:50.522Z,0.8
2023-11-13T07:20:21.024Z,1.6
2023-11-13T07:21:51.537Z,1.2
2023-11-13T07:24:52.564Z,1.4
2023-11-13T07:26:07.637Z,0.9
2023-11-13T07:27:22.695Z,1.1
2023-11-13T07:28:53.211Z,1.4
2023-11-13T07:30:23.734Z,1.7
2023-11-13T07:31:54.236Z,1.1
2023-11-13T07:33:24.757Z,1.1
2023-11-13T07:34:55.262Z,1.7
2023-11-13T07:36:25.777Z,1.3
2023-11-13T07:37:56.294Z,1.8
2023-11-13T07:39:26.798Z,0.8
2023-11-13T07:40:57.314Z,1
2023-11-13T07:42:12.399Z,1.5
2023-11-13T07:43:27.465Z,1.2
2023-11-13T07:44:57.973Z,0.4
2023-11-13T07:46:28.489Z,1.3
2023-11-13T07:47:59.012Z,1.2
2023-11-13T07:49:29.514Z,1.3
2023-11-13T07:51:00.040Z,0.9
2023-11-13T07:52:30.544Z,0.6
2023-11-13T07:54:01.060Z,1.5
2023-11-13T07:55:31.576Z,1.6
2023-11-13T07:57:02.070Z,0.8
2023-11-13T07:58:16.724Z,1.3
2023-11-13T07:59:31.795Z,0.7
2023-11-13T08:01:02.306Z,0.8
2023-11-13T08:02:32.824Z,0.8
2023-11-13T08:04:03.330Z,1.7
2023-11-13T08:05:33.849Z,1.2
2023-11-13T08:07:04.362Z,0.7
2023-11-13T08:08:34.884Z,1
2023-11-13T08:10:05.374Z,1.2
2023-11-13T08:11:35.000Z,1.9
2023-11-13T08:13:06.416Z,0.8
2023-11-13T08:14:21.486Z,1.6
2023-11-13T08:15:36.554Z,1
2023-11-13T08:17:07.076Z,1.2
2023-11-13T08:18:37.571Z,0.8
2023-11-13T08:20:08.090Z,1.5
2023-11-13T08:21:38.600Z,0.7
2023-11-13T08:23:09.123Z,0.9
2023-11-13T08:24:39.630Z,1.2
2023-11-13T08:26:10.132Z,1
2023-11-13T08:27:40.648Z,1.2
2023-11-13T08:29:11.167Z,1
2023-11-13T08:30:26.249Z,1
2023-11-13T08:33:11.841Z,1.5
2023-11-13T08:34:42.330Z,0.9
2023-11-13T08:36:12.852Z,1.4
2023-11-13T08:37:43.378Z,1.2
2023-11-13T08:39:13.879Z,1.4
2023-11-13T08:42:14.906Z,1.3
2023-11-13T08:43:45.426Z,1.4
2023-11-13T08:45:15.931Z,1.7
2023-11-13T08:46:30.995Z,0.8
2023-11-13T08:47:46.079Z,1.1
2023-11-13T08:49:16.593Z,0.9
2023-11-13T08:50:47.119Z,0.9
2023-11-13T08:52:17.616Z,0.8
2023-11-13T08:53:48.139Z,0.5
2023-11-13T08:55:18.641Z,1.9
2023-11-13T08:56:49.171Z,0.8
2023-11-13T08:58:19.661Z,1.1
2023-11-13T08:59:50.179Z,0.8
2023-11-13T09:01:20.680Z,1.4
2023-11-13T09:02:35.753Z,1
2023-11-13T09:03:50.836Z,1.2
2023-11-13T09:05:21.370Z,1
2023-11-13T09:06:51.870Z,0.3
2023-11-13T09:08:22.374Z,0.7
2023-11-13T09:09:52.891Z,0.4
2023-11-13T09:11:23.406Z,0.6
2023-11-13T09:12:53.910Z,1
2023-11-13T09:15:54.932Z,1.4
2023-11-13T09:17:25.459Z,1.4
2023-11-13T09:18:40.522Z,0.7
2023-11-13T09:21:26.113Z,1.2
2023-11-13T09:22:56.622Z,0.4
2023-11-13T09:24:27.143Z,0.5
2023-11-13T09:25:57.661Z,1.2
2023-11-13T09:28:58.669Z,0.2
2023-11-13T09:30:29.268Z,0.7
2023-11-13T09:32:07.884Z,0.8
2023-11-13T09:33:38.422Z,0.5
2023-11-13T09:36:08.554Z,0.8
2023-11-13T09:37:39.083Z,0.4
2023-11-13T09:39:09.581Z,0.4
2023-11-13T09:40:40.082Z,0.9
2023-11-13T09:42:10.600Z,0.4
2023-11-13T09:43:41.125Z,0.6
2023-11-13T09:45:11.639Z,0.8
2023-11-13T09:46:42.140Z,0.7
2023-11-13T09:48:12.666Z,0.9
2023-11-13T09:49:43.164Z,0.6
2023-11-13T09:50:58.243Z,0.8
2023-11-13T09:52:13.320Z,1
2023-11-13T09:53:43.834Z,1
2023-11-13T09:55:14.353Z,0.9
2023-11-13T09:56:44.843Z,1
2023-11-13T09:59:54.086Z,0.4
2023-11-13T10:01:24.589Z,0.7
2023-11-13T10:04:33.000Z,1
2023-11-13T10:06:03.389Z,1.1
2023-11-13T10:07:18.189Z,0.5
2023-11-13T10:08:56.813Z,0.8
2023-11-13T10:10:27.321Z,0.7
2023-11-13T10:11:57.843Z,0.5
2023-11-13T10:13:28.337Z,0.3
2023-11-13T10:14:58.848Z,0.7
2023-11-13T10:16:29.369Z,1.1
2023-11-13T10:17:59.904Z,0.8
2023-11-13T10:19:30.395Z,0.6
2023-11-13T10:21:00.899Z,0.8
2023-11-13T10:22:15.701Z,0.6
2023-11-13T10:23:30.779Z,0.6
2023-11-13T10:25:01.287Z,0.3
2023-11-13T10:26:31.816Z,0.7
2023-11-13T10:28:02.314Z,0.8
2023-11-13T10:29:32.844Z,0.4
2023-11-13T10:31:03.352Z,0.5
2023-11-13T10:32:33.868Z,1.2
2023-11-13T10:34:04.385Z,0.7
2023-11-13T10:35:34.890Z,0.6
2023-11-13T10:37:05.478Z,0.2
2023-11-13T10:39:57.756Z,0.5
2023-11-13T10:41:28.271Z,0.3
2023-11-13T10:42:58.773Z,0.4
2023-11-13T10:44:29.281Z,0.5
2023-11-13T10:45:59.797Z,0.4
2023-11-13T10:47:30.320Z,0.6
2023-11-13T10:49:00.837Z,0.1
2023-11-13T10:50:31.342Z,0.5
2023-11-13T10:53:32.381Z,0.5
2023-11-13T10:54:47.172Z,0.9
2023-11-13T10:56:02.236Z,0.6
2023-11-13T10:57:32.747Z,1
2023-11-13T10:59:03.269Z,1.7
2023-11-13T11:00:33.778Z,0.6
2023-11-13T11:02:04.302Z,0.7
2023-11-13T11:03:34.820Z,0.6
2023-11-13T11:05:05.342Z,0.3
2023-11-13T11:06:35.834Z,0.9
2023-11-13T11:08:06.353Z,0.5
2023-11-13T11:09:36.853Z,0.5
2023-11-13T11:11:07.368Z,0.4
2023-11-13T11:12:22.443Z,0.1
2023-11-13T11:13:37.524Z,0.5
2023-11-13T11:15:08.037Z,0.6
2023-11-13T11:16:38.613Z,0.5
2023-11-13T11:18:17.261Z,0.6
2023-11-13T11:19:47.759Z,0.6
2023-11-13T11:21:18.261Z,0.2
2023-11-13T11:22:48.789Z,0.3
2023-11-13T11:24:19.308Z,0.7
2023-11-13T11:25:49.811Z,0.5
2023-11-13T11:27:20.341Z,0.8
2023-11-13T11:28:35.395Z,0.5
2023-11-13T11:29:50.462Z,1
2023-11-13T11:31:20.977Z,0.3
2023-11-13T11:32:51.501Z,0.2
2023-11-13T11:34:21.999Z,0.3
2023-11-13T11:35:52.529Z,1
2023-11-13T11:37:23.030Z,0.5
2023-11-13T11:38:53.545Z,0.2
2023-11-13T11:41:54.578Z,0.3
2023-11-13T11:43:25.088Z,0.5
2023-11-13T11:44:40.148Z,0.6
2023-11-13T11:47:25.748Z,0.4
2023-11-13T11:48:56.256Z,0.4
2023-11-13T11:50:26.762Z,1
2023-11-13T11:51:57.273Z,0.1
2023-11-13T11:53:27.789Z,0.2
2023-11-13T11:54:58.303Z,0.3
2023-11-13T11:56:28.822Z,0.4
2023-11-13T11:57:59.335Z,0
2023-11-13T11:59:29.846Z,0.4
2023-11-13T12:00:44.922Z,0.7
2023-11-13T12:01:59.983Z,0.3
2023-11-13T12:03:30.490Z,0.3
2023-11-13T12:05:01.004Z,0.2
2023-11-13T12:06:31.523Z,0.2
2023-11-13T12:08:02.053Z,0.3
2023-11-13T12:11:03.072Z,0.4
2023-11-13T12:12:33.583Z,0.1
2023-11-13T12:14:04.092Z,0.5
2023-11-13T12:15:34.598Z,0.7
2023-11-13T12:16:49.673Z,0.1
2023-11-13T12:18:04.327Z,0.3
2023-11-13T12:21:05.344Z,0.4
2023-11-13T12:22:35.857Z,0.1
2023-11-13T12:24:06.376Z,0
2023-11-13T12:25:36.881Z,0.4
2023-11-13T12:27:07.387Z,0.3
2023-11-13T12:28:37.907Z,0.1
2023-11-13T12:30:08.408Z,0.1
2023-11-13T12:31:38.940Z,0.2
2023-11-13T12:32:54.019Z,0.1
2023-11-13T12:34:09.070Z,0
2023-11-13T12:35:39.594Z,0.2
2023-11-13T12:37:10.118Z,0.2
2023-11-13T12:38:40.624Z,0.1
2023-11-13T12:40:11.162Z,0.1
2023-11-13T12:41:41.634Z,0.2
2023-11-13T12:43:12.142Z,0.1
2023-11-13T12:44:42.667Z,0.2
2023-11-13T12:46:13.169Z,0.1
2023-11-13T12:47:43.691Z,0.1
2023-11-13T12:48:58.765Z,0.5
2023-11-13T12:50:13.833Z,0.2
2023-11-13T12:51:44.339Z,0.2
2023-11-13T12:53:14.883Z,0.2
2023-11-13T12:56:15.884Z,0.2
2023-11-13T12:57:46.398Z,0.4
2023-11-13T12:59:16.905Z,0.3
2023-11-13T13:00:47.423Z,0.2
2023-11-13T13:02:17.952Z,0.5
2023-11-13T13:03:48.452Z,0
2023-11-13T13:05:03.095Z,0
2023-11-13T13:06:18.187Z,0.2
2023-11-13T13:09:19.188Z,0
2023-11-13T13:10:49.715Z,0.4
2023-11-13T13:12:20.221Z,0.5
2023-11-13T13:13:50.000Z,0.1
2023-11-13T13:15:21.249Z,0.2
2023-11-13T13:16:51.744Z,0.4
2023-11-13T13:18:22.273Z,0.2
2023-11-13T13:19:52.782Z,0.4
2023-11-13T13:21:07.844Z,0
2023-11-13T13:22:22.933Z,0.2
2023-11-13T13:23:53.427Z,0.1
2023-11-13T13:25:23.959Z,0
2023-11-13T13:26:54.465Z,0.1
2023-11-13T13:28:24.967Z,0.1
2023-11-13T13:29:55.493Z,0
2023-11-13T13:32:56.509Z,0.1
2023-11-13T13:34:27.030Z,0
2023-11-13T13:35:57.530Z,0
2023-11-13T13:37:12.607Z,0.3
2023-11-13T13:38:27.686Z,0.1
2023-11-13T13:39:58.189Z,0.5
2023-11-13T13:41:28.726Z,0.1
2023-11-13T13:42:59.221Z,0.1
2023-11-13T13:44:29.756Z,0.2
2023-11-13T13:46:00.256Z,0.4
2023-11-13T13:47:30.776Z,0
2023-11-13T13:49:01.291Z,0.2
2023-11-13T13:50:31.776Z,0.2
2023-11-13T13:52:02.310Z,0.1
2023-11-13T13:53:17.373Z,0.3
2023-11-13T13:54:32.466Z,0.1
2023-11-13T13:56:02.968Z,0
2023-11-13T13:57:33.478Z,0.2
2023-11-13T13:59:03.988Z,0
2023-11-13T14:02:05.015Z,1.3
2023-11-13T14:03:35.533Z,0.3
2023-11-13T14:05:06.028Z,0.2
2023-11-13T14:06:36.562Z,0
2023-11-13T14:08:07.054Z,0.1
2023-11-13T14:09:22.126Z,0
2023-11-13T14:10:37.202Z,0
2023-11-13T14:12:07.726Z,0.1
2023-11-13T14:13:38.245Z,0.1
2023-11-13T14:15:08.733Z,0.1
2023-11-13T14:16:39.268Z,0
2023-11-13T14:18:09.783Z,0.1
2023-11-13T14:19:40.301Z,0
2023-11-13T14:21:10.786Z,0.2
2023-11-13T14:22:41.298Z,0.1
2023-11-13T14:24:11.829Z,0
2023-11-13T14:25:26.889Z,0.1
2023-11-13T14:26:41.967Z,0.1
2023-11-13T14:28:12.491Z,0.1
2023-11-13T14:29:42.998Z,0.2
2023-11-13T14:31:13.496Z,0.1
2023-11-13T14:32:44.030Z,0.1
2023-11-13T14:34:14.533Z,0
2023-11-13T14:35:45.048Z,0
2023-11-13T14:38:46.070Z,0
2023-11-13T14:40:16.588Z,0.1
2023-11-13T14:41:31.655Z,0
2023-11-13T14:42:46.743Z,0.1
2023-11-13T14:44:17.246Z,0
2023-11-13T14:45:47.748Z,0.3
2023-11-13T14:47:18.280Z,0.1
2023-11-13T14:50:19.297Z,0.3
2023-11-13T14:51:49.810Z,0.1
2023-11-13T14:53:20.331Z,0.1
2023-11-13T14:56:21.354Z,0.1
2023-11-13T14:57:36.148Z,0
2023-11-13T14:58:51.223Z,0.1
2023-11-13T15:00:21.734Z,0
2023-11-13T15:01:52.315Z,0.3
2023-11-13T15:03:30.943Z,0
2023-11-13T15:05:01.447Z,0.2
2023-11-13T15:06:31.970Z,0.1
2023-11-13T15:09:33.005Z,0.1
2023-11-13T15:11:03.500Z,0.1
2023-11-13T15:12:34.036Z,0.1
2023-11-13T15:14:03.114Z,0
2023-11-13T15:15:18.183Z,0.1
2023-11-13T15:16:48.711Z,0
2023-11-13T15:18:19.221Z,0.3
2023-11-13T15:19:49.746Z,0.1
2023-11-13T15:21:20.255Z,0.2
2023-11-13T15:22:50.771Z,0.2
2023-11-13T15:24:21.255Z,0
2023-11-13T15:25:51.776Z,0.1
2023-11-13T15:27:22.320Z,0.2
2023-11-13T15:28:52.888Z,0
2023-11-13T15:31:23.034Z,0.2
2023-11-13T15:32:53.538Z,0.1
2023-11-13T15:34:24.058Z,0.1
2023-11-13T15:35:54.596Z,0.1
2023-11-13T15:37:25.074Z,0
2023-11-13T15:38:55.589Z,0.1
2023-11-13T15:40:26.131Z,0.1
2023-11-13T15:41:56.614Z,0.8
2023-11-13T15:44:57.649Z,0
2023-11-13T15:47:27.805Z,0.1
2023-11-13T15:48:58.310Z,0.1
2023-11-13T15:50:28.848Z,0
2023-11-13T15:53:29.885Z,0.5
2023-11-13T15:55:00.388Z,0
2023-11-13T15:56:30.902Z,0.4
2023-11-13T15:58:01.498Z,0.3
2023-11-13T15:59:40.121Z,0
2023-11-13T16:02:25.748Z,1.8
2023-11-13T16:03:40.880Z,0.9
2023-11-13T16:05:11.388Z,0
2023-11-13T16:06:41.904Z,0.1
2023-11-13T16:08:12.429Z,0
2023-11-13T16:09:42.925Z,0.2
2023-11-13T16:11:13.440Z,0.1
2023-11-13T16:12:43.949Z,0.3
2023-11-13T16:14:14.473Z,0.1
2023-11-13T16:17:15.493Z,0
2023-11-13T16:18:30.608Z,0.3
2023-11-13T16:19:45.740Z,0
2023-11-13T16:21:16.342Z,0.1
2023-11-13T16:22:54.958Z,0
2023-11-13T16:24:25.468Z,0.1
2023-11-13T16:25:55.978Z,0.1
2023-11-13T16:27:26.499Z,0
2023-11-13T16:28:57.007Z,0
2023-11-13T16:30:27.520Z,0
2023-11-13T16:31:58.034Z,0.4
2023-11-13T16:33:28.550Z,0.2
2023-11-13T16:37:29.321Z,0.3
2023-11-13T16:38:59.837Z,0.1
2023-11-13T16:42:00.858Z,0.4
2023-11-13T16:43:31.374Z,0.6
2023-11-13T16:45:01.885Z,0.1
2023-11-13T16:46:32.397Z,0
2023-11-13T16:48:02.897Z,0
2023-11-13T16:49:33.411Z,0.2
2023-11-13T16:50:48.537Z,0.1
2023-11-13T16:52:03.665Z,0.2
2023-11-13T16:53:34.184Z,0
2023-11-13T16:55:04.706Z,0.1
2023-11-13T16:56:35.207Z,0.1
2023-11-13T16:58:05.731Z,0.2
2023-11-13T16:59:36.236Z,0.1
2023-11-13T17:01:06.745Z,0.1
2023-11-13T17:04:07.775Z,0
2023-11-13T17:05:38.287Z,0.9
2023-11-13T17:06:53.421Z,0
2023-11-13T17:08:08.094Z,0
2023-11-13T17:09:38.616Z,0
2023-11-13T17:11:09.129Z,0
2023-11-13T17:12:39.637Z,0
2023-11-13T17:15:48.858Z,0.1
2023-11-13T17:17:19.381Z,0
2023-11-13T17:18:49.878Z,0
2023-11-13T17:20:20.392Z,0.1
2023-11-13T17:21:50.912Z,0.2
2023-11-13T17:23:06.027Z,0.2
2023-11-13T17:24:21.171Z,0.1
2023-11-13T17:25:51.667Z,0.1
2023-11-13T17:27:22.180Z,0.2
2023-11-13T17:28:52.693Z,0.2
2023-11-13T17:30:23.218Z,0.1
2023-11-13T17:31:53.730Z,0.1
2023-11-13T17:33:24.239Z,0.4
2023-11-13T17:34:54.755Z,0
2023-11-13T17:36:25.271Z,0
2023-11-13T17:39:10.910Z,0.3
2023-11-13T17:40:26.025Z,0.5
2023-11-13T17:41:56.539Z,0
2023-11-13T17:43:27.056Z,0.1
2023-11-13T17:44:57.577Z,0.1
2023-11-13T17:46:28.107Z,0.1
2023-11-13T17:47:58.592Z,0
2023-11-13T17:49:29.106Z,0
2023-11-13T17:50:59.704Z,0
2023-11-13T17:52:38.319Z,0.3
2023-11-13T17:54:08.848Z,0.2
2023-11-13T17:55:23.967Z,0.1
2023-11-13T17:56:39.098Z,0.1
2023-11-13T17:58:09.610Z,0.1
2023-11-13T17:59:40.130Z,0.1
2023-11-13T18:01:10.640Z,0.1
2023-11-13T18:02:41.135Z,0.1
2023-11-13T18:04:11.666Z,0.1
2023-11-13T18:05:42.253Z,0.1
2023-11-13T18:07:20.875Z,0.1
2023-11-13T18:08:51.387Z,0
2023-11-13T18:10:21.888Z,0.2
2023-11-13T18:11:37.017Z,0
2023-11-13T18:12:52.148Z,0.1
2023-11-13T18:14:22.675Z,0
2023-11-13T18:17:23.691Z,0
2023-11-13T18:18:54.211Z,0
2023-11-13T18:20:24.720Z,0
2023-11-13T18:21:55.240Z,0.1
2023-11-13T18:23:25.752Z,0.3
2023-11-13T18:27:41.896Z,0
2023-11-13T18:28:57.027Z,0
2023-11-13T18:31:58.038Z,0.1
2023-11-13T18:33:28.562Z,0
2023-11-13T18:34:59.160Z,0.1
2023-11-13T18:36:37.766Z,0.4
2023-11-13T18:38:08.299Z,0.1
2023-11-13T18:39:38.802Z,0
2023-11-13T18:41:09.323Z,0.2
2023-11-13T18:42:39.822Z,0.3
2023-11-13T18:43:54.964Z,0.1
2023-11-13T18:45:10.087Z,0
2023-11-13T18:46:40.595Z,0
2023-11-13T18:48:11.102Z,0
2023-11-13T18:49:41.707Z,0
2023-11-13T18:51:20.315Z,0
2023-11-13T18:52:50.833Z,0
2023-11-13T18:54:21.351Z,0.4
2023-11-13T18:55:51.850Z,0.3
2023-11-13T18:57:22.383Z,0
2023-11-13T19:00:08.012Z,0
2023-11-13T19:01:23.130Z,0
2023-11-13T19:02:53.655Z,0.5
2023-11-13T19:04:24.155Z,0.1
2023-11-13T19:05:54.673Z,0.1
2023-11-13T19:07:25.193Z,0.1
2023-11-13T19:08:55.717Z,0
2023-11-13T19:10:26.220Z,0
2023-11-13T19:11:56.721Z,0
2023-11-13T19:13:27.234Z,0
2023-11-13T19:14:57.758Z,0.2
2023-11-13T19:16:12.888Z,0
2023-11-13T19:17:28.007Z,0.1
2023-11-13T19:18:58.517Z,0.1
2023-11-13T19:20:29.036Z,0
2023-11-13T19:21:59.551Z,0.2
2023-11-13T19:23:30.055Z,0
2023-11-13T19:25:00.569Z,0
2023-11-13T19:26:31.076Z,0.1
2023-11-13T19:28:01.592Z,0.3
2023-11-13T19:31:02.629Z,0.1
2023-11-13T19:32:17.749Z,0
2023-11-13T19:33:32.432Z,0.1
2023-11-13T19:35:02.957Z,0
2023-11-13T19:36:33.458Z,0.3
2023-11-13T19:38:03.971Z,0
2023-11-13T19:39:34.478Z,0
2023-11-13T19:41:05.003Z,0
2023-11-13T19:42:35.522Z,0.3
2023-11-13T19:45:36.546Z,0.3
2023-11-13T19:47:07.052Z,0
2023-11-13T19:48:22.173Z,0.1
2023-11-13T19:49:37.310Z,0.1
2023-11-13T19:51:07.818Z,0
2023-11-13T19:52:38.338Z,0
2023-11-13T19:54:08.843Z,0.1
2023-11-13T19:55:39.360Z,0
2023-11-13T19:57:09.958Z,0.3
2023-11-13T19:58:48.562Z,0.4
2023-11-13T20:00:19.090Z,0
2023-11-13T20:01:49.587Z,0.1
2023-11-13T20:03:20.102Z,0.2
2023-11-13T20:04:35.233Z,0.1
2023-11-13T20:05:50.366Z,0.1
2023-11-13T20:08:51.374Z,0.2
2023-11-13T20:10:21.891Z,0
2023-11-13T20:11:52.418Z,0.2
2023-11-13T20:13:22.925Z,0.2
2023-11-13T20:14:53.435Z,0.1
2023-11-13T20:16:23.939Z,0.2
2023-11-13T20:19:24.982Z,0
2023-11-13T20:20:40.090Z,0.2
2023-11-13T20:21:55.230Z,0.7
2023-11-13T20:23:25.742Z,0
2023-11-13T20:24:56.261Z,0.3
2023-11-13T20:26:26.000Z,0.1
2023-11-13T20:27:57.274Z,0
2023-11-13T20:29:27.807Z,0.4
2023-11-13T20:30:58.304Z,0.3
2023-11-13T20:32:28.810Z,0.2
2023-11-13T20:33:59.345Z,0.1
2023-11-13T20:35:29.847Z,0.1
2023-11-13T20:36:44.963Z,0.3
2023-11-13T20:38:00.098Z,0.3
2023-11-13T20:39:30.612Z,0.1
2023-11-13T20:41:01.115Z,0.2
2023-11-13T20:44:02.141Z,0.4
2023-11-13T20:45:32.650Z,0.3
2023-11-13T20:47:03.165Z,0.3
2023-11-13T20:48:33.700Z,0.3
2023-11-13T20:50:04.192Z,0.2
2023-11-13T20:51:34.708Z,0.3
2023-11-13T20:52:49.836Z,0
2023-11-13T20:54:04.526Z,0.1
2023-11-13T20:55:35.030Z,0.1
2023-11-13T20:58:36.067Z,0.2
2023-11-13T21:00:06.574Z,0.3
2023-11-13T21:03:07.609Z,0.4
2023-11-13T21:04:38.110Z,0
2023-11-13T21:06:08.698Z,0.2
2023-11-13T21:07:47.314Z,0.3
2023-11-13T21:09:02.452Z,0
2023-11-13T21:10:17.580Z,0
2023-11-13T21:11:48.080Z,0.7
2023-11-13T21:13:18.605Z,0.2
2023-11-13T21:14:49.123Z,0
2023-11-13T21:16:19.623Z,0.3
2023-11-13T21:17:50.148Z,0.1
2023-11-13T21:19:20.643Z,0
2023-11-13T21:20:51.156Z,0
2023-11-13T21:22:21.769Z,0.6
2023-11-13T21:24:00.375Z,1
2023-11-13T21:25:15.496Z,0.8
2023-11-13T21:26:30.630Z,0
2023-11-13T21:28:01.154Z,0.2
2023-11-13T21:29:31.684Z,0.1
2023-11-13T21:31:02.180Z,0.1
2023-11-13T21:32:32.687Z,0
2023-11-13T21:34:03.199Z,0
2023-11-13T21:35:33.704Z,0.1
2023-11-13T21:37:04.238Z,0.1
2023-11-13T21:38:34.737Z,0.2
2023-11-13T21:40:05.246Z,0.2
2023-11-13T21:41:20.365Z,0.2
2023-11-13T21:42:35.515Z,0.3
2023-11-13T21:44:06.026Z,0.1
2023-11-13T21:48:37.549Z,0.1
2023-11-13T21:50:08.072Z,0.1
2023-11-13T21:54:39.597Z,0
2023-11-13T21:56:10.105Z,0.1
2023-11-13T21:57:25.232Z,0